Time;durP1;ratioP1;P1;durP2;ratioP2;P2;SDS_P1;SDS_P2;PMS_P1;PMS_P2;Temp;Humidity;BMP_temperature;BMP_pressure;BME280_temperature;BME280_humidity;BME280_pressure;Samples;Min_cycle;Max_cycle;Signal;HPM_P1;HPM_P2
2022/08/29 00:01:02;;;;;;;37.08;33.90;;;;;;;20.36;100.00;100808.78;5072844;28;20056;-79
2022/08/29 00:03:29;;;;;;;38.28;35.40;;;;;;;20.38;100.00;100805.84;5073582;28;20477;-82
2022/08/29 00:05:58;;;;;;;35.25;32.42;;;;;;;20.53;100.00;100806.69;5072117;28;20044;-82
2022/08/29 00:08:25;;;;;;;35.47;32.15;;;;;;;20.30;100.00;100809.88;5078326;28;20513;-81
2022/08/29 00:10:54;;;;;;;35.03;31.35;;;;;;;19.90;100.00;100804.13;5077115;28;20044;-81
2022/08/29 00:13:24;;;;;;;36.00;32.33;;;;;;;19.72;100.00;100803.81;5074937;28;20051;-81
2022/08/29 00:15:51;;;;;;;35.33;32.35;;;;;;;20.02;100.00;100812.00;5074450;28;20048;-80
2022/08/29 00:18:19;;;;;;;38.65;34.03;;;;;;;20.28;100.00;100809.34;5075942;28;20041;-79
2022/08/29 00:20:48;;;;;;;36.25;33.05;;;;;;;20.39;100.00;100805.56;5079045;28;20123;-83
2022/08/29 00:23:16;;;;;;;39.30;34.95;;;;;;;20.19;100.00;100805.56;5078323;28;20044;-82
2022/08/29 00:25:45;;;;;;;37.30;33.65;;;;;;;20.17;100.00;100797.72;5080981;28;20495;-79
2022/08/29 00:28:12;;;;;;;36.83;32.92;;;;;;;20.23;100.00;100795.84;5079968;28;20056;-80
2022/08/29 00:30:41;;;;;;;36.75;33.65;;;;;;;20.08;100.00;100796.63;5077131;28;20049;-82
2022/08/29 00:33:08;;;;;;;34.50;31.80;;;;;;;19.86;100.00;100796.88;5085308;28;20044;-81
2022/08/29 00:35:39;;;;;;;37.33;34.10;;;;;;;19.87;100.00;100798.47;5078730;28;20059;-80
2022/08/29 00:38:10;;;;;;;38.85;36.10;;;;;;;19.90;100.00;100801.44;5075548;28;20105;-80
2022/08/29 00:40:40;;;;;;;41.78;38.35;;;;;;;20.13;100.00;100796.66;5082974;28;20121;-80
2022/08/29 00:43:09;;;;;;;34.35;31.67;;;;;;;20.02;100.00;100803.91;5079228;28;20500;-82
2022/08/29 00:45:46;;;;;;;34.20;31.27;;;;;;;19.96;100.00;100796.06;5078248;28;20091;-82
2022/08/29 00:48:16;;;;;;;41.15;37.65;;;;;;;19.93;100.00;100797.41;5077680;28;20063;-79
2022/08/29 00:50:48;;;;;;;37.15;33.42;;;;;;;19.99;100.00;100796.34;5078878;28;20468;-82
2022/08/29 00:53:18;;;;;;;36.47;33.05;;;;;;;19.87;100.00;100793.09;5078377;28;20052;-83
2022/08/29 00:55:47;;;;;;;38.08;34.38;;;;;;;19.94;100.00;100793.66;5078004;28;20049;-81
2022/08/29 00:58:18;;;;;;;37.65;34.85;;;;;;;19.89;100.00;100802.53;5077205;28;20393;-79
2022/08/29 01:00:47;;;;;;;35.25;32.10;;;;;;;20.06;100.00;100799.63;5082006;28;20076;-82
2022/08/29 01:03:14;;;;;;;37.05;34.03;;;;;;;19.71;100.00;100802.22;5077015;28;20052;-80
2022/08/29 01:05:43;;;;;;;36.22;33.42;;;;;;;20.13;100.00;100796.66;5079100;28;20065;-82
2022/08/29 01:08:11;;;;;;;36.45;33.33;;;;;;;19.84;100.00;100801.69;5077432;28;20059;-80
2022/08/29 01:13:30;;;;;;;36.53;33.67;;;;;;;19.92;100.00;100795.00;5079311;28;20397;-82
2022/08/29 01:15:58;;;;;;;40.15;36.50;;;;;;;19.59;100.00;100797.81;5079743;28;20051;-80
2022/08/29 01:18:28;;;;;;;36.15;32.78;;;;;;;19.90;100.00;100797.94;5077167;28;20048;-80
2022/08/29 01:21:07;;;;;;;38.40;34.58;;;;;;;19.34;100.00;100800.41;5084008;28;20461;-81
2022/08/29 01:23:41;;;;;;;45.05;41.00;;;;;;;19.78;100.00;100808.16;5081122;28;20056;-82
2022/08/29 01:26:11;;;;;;;37.67;34.20;;;;;;;19.74;100.00;100805.19;5079901;28;20053;-81
2022/08/29 01:28:42;;;;;;;35.03;32.35;;;;;;;19.40;100.00;100802.88;5071951;28;20053;-82
2022/08/29 01:31:13;;;;;;;35.42;32.55;;;;;;;19.35;100.00;100810.13;5074859;28;20425;-82
2022/08/29 01:33:44;;;;;;;38.35;35.28;;;;;;;19.51;100.00;100811.78;5080652;28;20043;-82
2022/08/29 01:36:15;;;;;;;34.53;31.70;;;;;;;19.37;100.00;100810.66;5077780;28;20049;-84
2022/08/29 01:38:43;;;;;;;35.15;32.42;;;;;;;19.43;100.00;100817.69;5076920;28;20059;-82
2022/08/29 01:41:11;;;;;;;35.72;32.90;;;;;;;19.49;100.00;100802.38;5077820;28;20043;-80
2022/08/29 01:43:43;;;;;;;35.42;32.28;;;;;;;19.86;100.00;100802.25;5081108;28;20147;-81
2022/08/29 01:46:13;;;;;;;36.90;33.88;;;;;;;19.62;100.00;100809.97;5076398;28;20040;-81
2022/08/29 01:48:43;;;;;;;34.55;31.73;;;;;;;19.72;100.00;100809.22;5083148;28;20049;-79
2022/08/29 01:51:10;;;;;;;33.17;29.83;;;;;;;19.76;100.00;100803.03;5078316;28;20052;-79
2022/08/29 01:53:38;;;;;;;34.10;31.27;;;;;;;19.91;100.00;100810.38;5077143;28;20074;-80
2022/08/29 01:56:11;;;;;;;32.85;29.63;;;;;;;19.64;100.00;100814.03;5078290;28;20052;-82
2022/08/29 01:58:47;;;;;;;41.60;38.33;;;;;;;19.08;100.00;100813.72;5078623;28;20059;-82
2022/08/29 02:01:17;;;;;;;33.97;30.63;;;;;;;19.62;100.00;100815.34;5184091;22;20064;-79
2022/08/29 02:03:44;;;;;;;40.50;37.05;;;;;;;19.81;100.00;100811.13;5032891;28;20451;-83
2022/08/29 02:06:11;;;;;;;40.60;37.30;;;;;;;19.59;100.00;100814.00;5034250;28;20052;-80
2022/08/29 02:08:38;;;;;;;38.78;35.55;;;;;;;20.03;100.00;100810.94;5028558;28;20060;-81
2022/08/29 02:11:09;;;;;;;37.28;33.58;;;;;;;20.19;100.00;100808.25;5030209;28;20049;-80
2022/08/29 02:13:37;;;;;;;35.10;32.67;;;;;;;19.72;100.00;100806.50;5032771;28;20543;-83
2022/08/29 02:16:04;;;;;;;42.03;38.55;;;;;;;19.12;100.00;100817.53;5031682;28;20402;-83
2022/08/29 02:18:32;;;;;;;38.55;35.30;;;;;;;19.75;100.00;100811.38;5033961;28;20045;-80
2022/08/29 02:20:59;;;;;;;46.33;42.70;;;;;;;19.79;100.00;100810.59;5033481;28;20048;-82
2022/08/29 02:23:26;;;;;;;40.53;37.05;;;;;;;19.32;100.00;100816.03;5034153;28;20045;-80
2022/08/29 02:25:53;;;;;;;46.17;42.47;;;;;;;19.33;100.00;100814.94;5033027;28;20053;-82
2022/08/29 02:28:21;;;;;;;50.58;46.45;;;;;;;19.23;100.00;100819.19;5032889;28;20723;-81
2022/08/29 02:30:52;;;;;;;38.17;35.00;;;;;;;18.90;100.00;100823.03;5033388;28;20428;-79
2022/08/29 02:33:20;;;;;;;40.22;37.15;;;;;;;19.36;100.00;100815.22;5030932;28;20119;-80
2022/08/29 02:35:48;;;;;;;40.25;36.95;;;;;;;19.41;100.00;100811.75;5033633;28;20061;-80
2022/08/29 02:38:16;;;;;;;44.70;41.38;;;;;;;19.55;100.00;100817.50;5033825;28;20054;-80
2022/08/29 02:40:44;;;;;;;45.88;42.78;;;;;;;19.19;100.00;100823.50;5033826;28;20056;-79
2022/08/29 02:43:11;;;;;;;44.50;40.15;;;;;;;19.10;100.00;100818.88;5032474;28;20049;-80
2022/08/29 02:45:40;;;;;;;52.13;48.92;;;;;;;19.28;100.00;100823.00;5033926;28;20049;-81
2022/08/29 02:48:10;;;;;;;46.22;42.22;;;;;;;19.39;100.00;100822.78;5033510;28;20060;-81
2022/08/29 02:50:40;;;;;;;56.22;51.00;;;;;;;19.21;100.00;100824.06;5034164;28;20076;-82
2022/08/29 02:53:08;;;;;;;47.50;44.22;;;;;;;19.20;100.00;100830.50;5030789;28;20111;-81
2022/08/29 02:55:35;;;;;;;51.60;47.65;;;;;;;19.30;100.00;100831.63;5031214;28;20049;-81
2022/08/29 02:58:02;;;;;;;42.40;39.05;;;;;;;19.34;100.00;100827.34;5032246;28;20452;-81
2022/08/29 03:00:29;;;;;;;48.90;45.72;;;;;;;19.33;100.00;100836.47;5029068;28;20053;-80
2022/08/29 03:02:58;;;;;;;50.88;46.58;;;;;;;19.36;100.00;100838.66;5033736;28;20417;-81
2022/08/29 03:05:31;;;;;;;45.47;41.85;;;;;;;19.07;100.00;100844.41;5029009;28;20111;-79
2022/08/29 03:07:58;;;;;;;53.90;50.33;;;;;;;18.88;100.00;100840.50;5032693;28;20473;-80
2022/08/29 03:10:25;;;;;;;46.97;42.33;;;;;;;19.01;100.00;100850.84;5031282;28;20540;-80
2022/08/29 03:12:53;;;;;;;50.92;47.38;;;;;;;18.97;100.00;100847.84;5029980;28;20489;-82
2022/08/29 03:15:21;;;;;;;43.47;39.53;;;;;;;18.66;100.00;100846.75;5032764;28;20046;-81
2022/08/29 03:17:48;;;;;;;46.95;43.83;;;;;;;18.73;100.00;100843.91;5033331;28;20502;-80
2022/08/29 03:20:18;;;;;;;44.67;40.92;;;;;;;18.62;100.00;100859.13;5032613;28;20037;-81
2022/08/29 03:22:47;;;;;;;45.30;41.45;;;;;;;18.50;100.00;100864.66;5031722;28;20410;-83
2022/08/29 03:25:15;;;;;;;44.78;41.25;;;;;;;18.76;100.00;100868.41;5031722;28;20068;-81
2022/08/29 03:27:42;;;;;;;37.00;33.38;;;;;;;18.67;100.00;100869.09;5032572;28;20038;-82
2022/08/29 03:30:12;;;;;;;41.80;38.08;;;;;;;19.14;100.00;100868.41;5032385;28;20042;-80
2022/08/29 03:32:39;;;;;;;39.22;35.53;;;;;;;18.86;100.00;100864.19;5033183;28;20054;-80
2022/08/29 03:35:08;;;;;;;35.53;31.30;;;;;;;19.00;100.00;100862.66;5032854;28;20134;-84
2022/08/29 03:37:35;;;;;;;32.95;29.60;;;;;;;18.75;100.00;100877.53;5032560;28;20054;-80
2022/08/29 03:40:05;;;;;;;34.63;31.20;;;;;;;18.58;100.00;100879.53;5032073;28;20060;-80
2022/08/29 03:42:32;;;;;;;36.90;30.80;;;;;;;18.63;100.00;100882.25;5028580;28;20088;-81
2022/08/29 03:44:59;;;;;;;32.05;29.08;;;;;;;18.43;100.00;100882.06;5031860;28;20049;-81
2022/08/29 03:47:25;;;;;;;36.70;31.08;;;;;;;18.82;100.00;100880.03;5032813;28;20387;-82
2022/08/29 03:49:52;;;;;;;30.83;27.60;;;;;;;18.82;100.00;100884.59;5032371;28;20068;-81
2022/08/29 03:52:19;;;;;;;31.33;28.63;;;;;;;18.64;100.00;100889.25;5031819;28;20500;-81
2022/08/29 03:54:46;;;;;;;41.38;37.55;;;;;;;18.79;100.00;100885.94;5032371;28;20060;-81
2022/08/29 03:57:14;;;;;;;46.22;42.35;;;;;;;18.99;100.00;100893.34;5030998;28;21214;-80
2022/08/29 03:59:42;;;;;;;34.28;28.85;;;;;;;18.73;100.00;100897.72;5030942;28;20049;-80
2022/08/29 04:02:09;;;;;;;32.15;29.33;;;;;;;18.57;100.00;100901.28;5033080;28;20045;-81
2022/08/29 04:07:20;;;;;;;31.90;28.63;;;;;;;19.05;100.00;100907.66;5032228;28;20409;-79
2022/08/29 04:09:47;;;;;;;30.42;27.38;;;;;;;18.73;100.00;100900.41;5032609;28;20049;-79
2022/08/29 04:12:16;;;;;;;32.63;29.13;;;;;;;19.06;100.00;100909.25;5031896;28;20048;-79
2022/08/29 04:14:43;;;;;;;32.80;29.55;;;;;;;19.03;100.00;100915.97;5031297;28;20045;-83
2022/08/29 04:17:11;;;;;;;35.95;32.17;;;;;;;19.29;100.00;100916.19;5032137;28;20053;-80
2022/08/29 04:19:38;;;;;;;35.75;32.42;;;;;;;19.58;100.00;100922.84;5032776;28;20042;-80
2022/08/29 04:22:06;;;;;;;37.80;34.55;;;;;;;19.67;100.00;100910.50;5032617;28;20115;-81
2022/08/29 04:24:34;;;;;;;35.30;31.83;;;;;;;19.89;100.00;100915.72;5031059;28;20136;-80
2022/08/29 04:27:01;;;;;;;37.25;33.53;;;;;;;19.91;100.00;100907.41;5029886;28;20267;-81
2022/08/29 04:29:29;;;;;;;46.85;33.28;;;;;;;20.02;100.00;100909.03;5031381;28;20053;-81
2022/08/29 04:31:56;;;;;;;36.33;32.42;;;;;;;20.30;100.00;100901.56;5032552;28;20119;-79
2022/08/29 04:34:23;;;;;;;32.85;30.35;;;;;;;20.06;100.00;100909.31;5031885;28;20049;-79
2022/08/29 04:36:50;;;;;;;31.95;28.98;;;;;;;20.32;100.00;100916.41;5030601;28;20045;-79
2022/08/29 04:39:18;;;;;;;35.08;31.52;;;;;;;20.38;100.00;100913.72;5032541;28;20041;-80
2022/08/29 04:41:45;;;;;;;31.92;29.08;;;;;;;20.50;100.00;100912.41;5032628;28;20100;-79
2022/08/29 04:44:13;;;;;;;32.30;29.23;;;;;;;20.41;100.00;100911.31;5031225;28;20126;-82
2022/08/29 04:46:41;;;;;;;39.15;35.03;;;;;;;20.61;100.00;100912.47;5031565;28;20485;-79
2022/08/29 04:49:09;;;;;;;32.45;29.45;;;;;;;20.80;100.00;100910.84;5031980;28;20461;-80
2022/08/29 04:51:36;;;;;;;34.45;31.08;;;;;;;20.80;100.00;100913.56;5032441;28;20077;-82
2022/08/29 04:54:05;;;;;;;33.08;30.15;;;;;;;20.93;100.00;100913.00;5029432;28;20160;-78
2022/08/29 04:56:36;;;;;;;32.63;29.55;;;;;;;21.10;100.00;100909.25;5030355;28;20122;-82
2022/08/29 04:59:04;;;;;;;31.70;28.63;;;;;;;20.74;100.00;100906.53;5031152;28;20136;-79
2022/08/29 05:01:31;;;;;;;33.63;30.58;;;;;;;21.12;100.00;100907.88;5032122;28;20517;-80
2022/08/29 05:03:59;;;;;;;33.90;30.60;;;;;;;21.16;100.00;100911.66;5031250;28;20041;-79
2022/08/29 05:06:27;;;;;;;33.22;30.33;;;;;;;20.89;100.00;100914.63;5031144;28;20053;-80
2022/08/29 05:08:53;;;;;;;32.05;28.17;;;;;;;21.32;100.00;100920.53;5034780;28;20050;-80
2022/08/29 05:11:21;;;;;;;33.78;30.27;;;;;;;21.47;100.00;100917.84;5034721;28;20037;-79
2022/08/29 05:13:48;;;;;;;36.90;31.58;;;;;;;21.68;100.00;100909.69;5034080;28;20518;-81
2022/08/29 05:16:17;;;;;;;37.80;33.92;;;;;;;21.64;100.00;100905.91;5032046;28;20045;-81
2022/08/29 05:18:45;;;;;;;37.97;34.50;;;;;;;21.82;100.00;100915.31;5033698;28;20057;-79
2022/08/29 05:21:25;;;;;;;34.85;31.10;;;;;;;21.82;100.00;100913.44;5031635;28;20510;-80
2022/08/29 05:23:53;;;;;;;33.00;29.45;;;;;;;22.24;100.00;100909.47;5033932;28;20085;-79
2022/08/29 05:26:21;;;;;;;32.22;29.05;;;;;;;22.36;100.00;100906.41;5030309;28;20049;-79
2022/08/29 05:28:50;;;;;;;33.75;30.35;;;;;;;22.63;100.00;100903.25;5033438;28;20049;-79
2022/08/29 05:31:17;;;;;;;37.03;28.45;;;;;;;22.44;100.00;100907.72;5030967;28;20470;-81
2022/08/29 05:33:44;;;;;;;34.63;27.50;;;;;;;22.74;100.00;100904.00;5033092;28;20412;-81
2022/08/29 05:36:11;;;;;;;29.70;26.70;;;;;;;22.77;100.00;100906.94;5034738;28;20406;-81
2022/08/29 05:38:39;;;;;;;33.72;30.35;;;;;;;23.46;100.00;100907.69;5034783;28;20132;-82
2022/08/29 05:41:07;;;;;;;33.22;29.77;;;;;;;23.65;100.00;100904.22;5034728;28;20042;-81
2022/08/29 05:43:34;;;;;;;34.55;31.50;;;;;;;23.51;100.00;100912.22;5036094;28;20062;-78
2022/08/29 05:46:05;;;;;;;37.33;30.10;;;;;;;23.58;100.00;100920.06;5035259;28;20049;-81
2022/08/29 05:48:33;;;;;;;31.10;28.05;;;;;;;23.97;100.00;100907.13;5034528;28;20057;-79
2022/08/29 05:51:00;;;;;;;32.38;28.95;;;;;;;24.06;100.00;100911.91;5033953;28;20455;-80
2022/08/29 05:53:28;;;;;;;37.00;28.50;;;;;;;24.49;100.00;100904.53;5033718;28;20056;-81
2022/08/29 05:55:56;;;;;;;31.58;29.15;;;;;;;24.79;100.00;100910.59;5034148;28;20433;-79
2022/08/29 05:58:25;;;;;;;33.53;30.08;;;;;;;24.25;100.00;100918.16;5032446;28;20332;-80
2022/08/29 06:00:52;;;;;;;34.10;30.92;;;;;;;24.74;100.00;100908.75;5034619;28;20061;-79
2022/08/29 06:03:18;;;;;;;33.03;29.52;;;;;;;25.21;100.00;100914.25;5053886;28;20045;-81
2022/08/29 06:05:50;;;;;;;45.85;42.00;;;;;;;25.32;100.00;100927.34;5052200;28;20052;-80
2022/08/29 06:08:17;;;;;;;43.22;38.70;;;;;;;25.06;100.00;100928.88;5053752;28;20053;-79
2022/08/29 06:10:45;;;;;;;42.20;38.58;;;;;;;25.33;100.00;100931.69;5050897;28;20489;-82
2022/08/29 06:13:14;;;;;;;46.75;42.72;;;;;;;25.58;100.00;100929.59;5052300;28;20045;-79
2022/08/29 06:15:44;;;;;;;37.03;33.40;;;;;;;25.82;100.00;100929.44;5050730;28;20146;-81
2022/08/29 06:18:11;;;;;;;41.63;38.30;;;;;;;25.70;100.00;100931.81;5049837;28;20143;-82
2022/08/29 06:20:39;;;;;;;31.83;28.27;;;;;;;26.19;100.00;100924.84;5053696;28;20049;-81
2022/08/29 06:23:06;;;;;;;31.00;27.83;;;;;;;26.18;100.00;100932.19;5051996;28;20549;-81
2022/08/29 06:25:33;;;;;;;36.65;32.78;;;;;;;26.52;100.00;100928.19;5052235;28;20047;-79
2022/08/29 06:28:01;;;;;;;39.75;36.38;;;;;;;26.70;100.00;100926.41;5049887;28;20045;-79
2022/08/29 06:30:31;;;;;;;32.22;26.50;;;;;;;26.71;100.00;100923.38;5050723;28;20053;-80
2022/08/29 06:33:01;;;;;;;29.02;26.17;;;;;;;26.95;100.00;100920.31;5054246;28;20393;-82
2022/08/29 06:35:28;;;;;;;31.98;27.95;;;;;;;27.55;100.00;100920.97;5055031;28;20049;-82
2022/08/29 06:37:55;;;;;;;32.40;29.20;;;;;;;27.44;95.10;100930.56;5053168;28;20053;-79
2022/08/29 06:40:23;;;;;;;39.47;28.63;;;;;;;27.69;94.97;100927.13;5049614;28;20041;-79
2022/08/29 06:42:51;;;;;;;45.50;28.88;;;;;;;27.77;92.73;100923.63;5050381;28;20124;-79
2022/08/29 06:45:18;;;;;;;33.72;30.67;;;;;;;27.96;94.40;100919.84;5052287;28;20452;-81
2022/08/29 06:47:47;;;;;;;34.17;30.88;;;;;;;28.03;99.53;100925.66;5052644;28;20041;-80
2022/08/29 06:50:15;;;;;;;32.35;29.48;;;;;;;28.18;87.54;100922.44;5051325;28;20098;-81
2022/08/29 06:52:43;;;;;;;32.08;29.05;;;;;;;28.29;87.28;100923.75;5049592;28;20052;-80
2022/08/29 06:55:16;;;;;;;35.33;29.58;;;;;;;28.49;84.27;100933.25;5049009;28;20098;-82
2022/08/29 06:57:45;;;;;;;31.67;28.58;;;;;;;28.42;84.32;100926.69;5050684;28;20474;-81
2022/08/29 07:00:20;;;;;;;34.63;31.48;;;;;;;28.23;85.29;100921.47;5049909;28;20058;-80
2022/08/29 07:02:48;;;;;;;31.70;27.55;;;;;;;28.55;86.24;100922.97;5036207;28;20111;-81
2022/08/29 07:05:16;;;;;;;32.55;29.25;;;;;;;28.94;85.22;100926.63;5032055;28;20038;-83
2022/08/29 07:07:43;;;;;;;35.60;32.15;;;;;;;29.09;81.47;100926.13;5034288;28;20057;-79
2022/08/29 07:10:11;;;;;;;31.75;28.63;;;;;;;28.37;81.29;100927.59;5035189;28;20049;-81
2022/08/29 07:12:38;;;;;;;34.03;30.88;;;;;;;28.61;83.16;100924.41;5042976;28;20060;-82
2022/08/29 07:15:05;;;;;;;34.67;30.35;;;;;;;29.21;91.49;100933.66;5034035;28;20099;-81
2022/08/29 07:17:32;;;;;;;33.65;30.50;;;;;;;28.85;89.49;100929.38;5034423;28;20060;-81
2022/08/29 07:20:01;;;;;;;32.42;29.05;;;;;;;29.14;80.11;100923.22;5033528;28;20057;-78
2022/08/29 07:22:28;;;;;;;31.27;28.35;;;;;;;29.44;88.96;100929.56;5027426;28;20072;-79
2022/08/29 07:24:55;;;;;;;39.22;35.95;;;;;;;29.57;76.41;100919.53;5031968;28;20053;-78
2022/08/29 07:27:22;;;;;;;37.15;33.70;;;;;;;29.69;74.01;100926.25;5029610;28;20459;-79
2022/08/29 07:29:49;;;;;;;33.35;30.10;;;;;;;29.87;73.89;100925.03;5033057;28;20450;-78
2022/08/29 07:32:16;;;;;;;32.58;29.10;;;;;;;29.89;69.15;100929.00;5030396;28;20091;-81
2022/08/29 07:34:43;;;;;;;32.55;28.40;;;;;;;29.92;65.62;100934.97;5030755;28;20485;-82
2022/08/29 07:37:11;;;;;;;30.52;27.35;;;;;;;30.27;70.71;100927.34;5026450;28;20041;-79
2022/08/29 07:39:38;;;;;;;31.35;28.13;;;;;;;30.42;71.38;100926.75;5031364;28;20057;-82
2022/08/29 07:42:05;;;;;;;36.90;28.33;;;;;;;30.55;74.03;100931.13;5032155;28;20366;-81
2022/08/29 07:44:33;;;;;;;31.17;27.88;;;;;;;30.54;61.71;100926.81;5031993;28;20056;-82
2022/08/29 07:47:01;;;;;;;31.48;28.77;;;;;;;31.12;69.39;100917.88;5029507;28;20474;-81
2022/08/29 07:49:31;;;;;;;32.47;28.67;;;;;;;31.11;60.32;100921.78;5027103;28;20045;-79
2022/08/29 07:51:58;;;;;;;29.42;26.02;;;;;;;30.76;59.29;100927.56;5033569;28;20470;-82
2022/08/29 07:54:27;;;;;;;30.00;27.25;;;;;;;31.45;64.82;100920.56;5034017;28;20136;-82
2022/08/29 07:56:54;;;;;;;30.90;27.80;;;;;;;31.80;66.25;100918.16;5029123;28;20077;-79
2022/08/29 07:59:21;;;;;;;30.48;27.95;;;;;;;31.75;58.67;100921.13;5032510;28;20042;-78
2022/08/29 08:01:48;;;;;;;34.10;31.25;;;;;;;31.73;58.69;100922.63;5033934;28;20049;-78
2022/08/29 08:04:15;;;;;;;34.65;30.33;;;;;;;31.77;59.14;100916.09;5033207;28;20068;-79
2022/08/29 08:06:44;;;;;;;30.98;28.10;;;;;;;31.77;63.31;100916.09;5032749;28;20041;-79
2022/08/29 08:09:12;;;;;;;34.60;31.08;;;;;;;31.96;59.01;100921.03;5032679;28;20053;-79
2022/08/29 08:11:41;;;;;;;32.03;29.02;;;;;;;32.12;55.42;100918.34;5032281;28;20069;-82
2022/08/29 08:14:08;;;;;;;34.50;30.80;;;;;;;32.39;53.22;100912.09;5030907;28;20056;-82
2022/08/29 08:16:35;;;;;;;34.10;30.48;;;;;;;32.45;49.82;100912.66;5033422;28;20060;-78
2022/08/29 08:19:03;;;;;;;33.92;30.17;;;;;;;32.85;50.85;100917.28;5030796;28;20052;-82
2022/08/29 08:21:30;;;;;;;31.48;29.17;;;;;;;32.40;56.63;100918.38;5030848;28;20053;-86
2022/08/29 08:23:57;;;;;;;32.75;29.08;;;;;;;32.95;54.78;100913.22;5032516;28;20038;-78
2022/08/29 08:26:24;;;;;;;40.72;30.05;;;;;;;33.18;51.39;100916.19;5029433;28;20037;-81
2022/08/29 08:28:53;;;;;;;34.58;28.10;;;;;;;33.24;51.45;100921.06;5032816;28;20049;-82
2022/08/29 08:31:20;;;;;;;34.97;29.45;;;;;;;33.59;51.26;100922.31;5032394;28;20119;-78
2022/08/29 08:33:47;;;;;;;33.15;29.98;;;;;;;33.19;46.22;100915.03;5031598;28;20050;-79
2022/08/29 08:36:18;;;;;;;33.15;29.92;;;;;;;32.88;46.74;100924.84;5032689;28;20068;-79
2022/08/29 08:38:45;;;;;;;31.60;28.83;;;;;;;32.94;50.70;100917.13;5031366;28;20049;-78
2022/08/29 08:41:23;;;;;;;32.58;29.63;;;;;;;33.04;50.98;100917.44;5031028;28;21362;-79
2022/08/29 08:43:53;;;;;;;35.22;31.63;;;;;;;32.95;52.31;100925.03;5035846;28;20085;-82
2022/08/29 08:46:27;;;;;;;35.80;32.83;;;;;;;33.06;48.03;100917.88;5031967;28;20462;-83
2022/08/29 08:48:56;;;;;;;33.20;30.50;;;;;;;33.08;48.33;100920.28;5028539;28;20053;-79
2022/08/29 08:51:28;;;;;;;34.25;30.98;;;;;;;32.64;52.07;100922.22;5035277;28;20042;-78
2022/08/29 08:53:58;;;;;;;31.30;28.30;;;;;;;32.81;48.94;100924.66;5033476;28;20501;-81
2022/08/29 08:56:32;;;;;;;34.53;31.33;;;;;;;33.49;51.38;100912.63;5035797;28;20536;-82
2022/08/29 08:59:06;;;;;;;41.50;29.70;;;;;;;33.07;49.86;100915.91;5036336;28;20486;-82
2022/08/29 09:01:39;;;;;;;34.70;31.80;;;;;;;32.96;44.65;100912.88;5035064;28;20065;-82
2022/08/29 09:04:32;;;;;;;34.00;30.83;;;;;;;33.46;42.47;100914.13;5035452;28;20046;-82
2022/08/29 09:07:10;;;;;;;32.58;29.13;;;;;;;33.65;46.66;100918.97;5036137;28;20490;-79
2022/08/29 09:09:55;;;;;;;37.38;34.65;;;;;;;33.57;49.24;100916.38;5036030;28;20042;-82
2022/08/29 09:12:34;;;;;;;32.88;29.58;;;;;;;34.04;41.51;100907.22;5034768;28;20049;-79
2022/08/29 09:15:07;;;;;;;35.03;26.95;;;;;;;33.77;43.65;100909.78;5032612;28;20072;-82
2022/08/29 09:17:42;;;;;;;33.50;30.95;;;;;;;33.28;42.83;100910.97;5036981;28;20633;-81
2022/08/29 09:20:12;;;;;;;31.67;28.52;;;;;;;34.16;41.29;100915.34;5035646;28;20474;-82
2022/08/29 09:22:42;;;;;;;35.13;32.05;;;;;;;33.09;46.74;100915.56;5034009;28;20135;-78
2022/08/29 09:25:10;;;;;;;33.03;30.10;;;;;;;33.92;46.34;100916.38;5034895;28;20049;-81
2022/08/29 09:27:37;;;;;;;31.58;29.10;;;;;;;34.51;40.46;100909.78;5034188;28;20045;-81
2022/08/29 09:30:10;;;;;;;36.33;28.08;;;;;;;34.57;46.13;100905.59;5034115;28;20049;-82
2022/08/29 09:32:54;;;;;;;32.60;29.23;;;;;;;35.04;43.34;100906.44;5034941;28;20525;-79
2022/08/29 09:35:24;;;;;;;34.85;29.58;;;;;;;34.57;42.91;100900.06;5035849;28;20103;-78
2022/08/29 09:38:01;;;;;;;34.67;27.98;;;;;;;35.30;40.84;100908.47;5035270;28;20045;-78
2022/08/29 09:40:46;;;;;;;34.20;30.85;;;;;;;35.16;44.63;100911.00;5034013;28;20161;-79
2022/08/29 09:43:19;;;;;;;35.67;31.58;;;;;;;34.54;46.91;100908.28;5034463;28;20057;-79
2022/08/29 09:46:13;;;;;;;33.53;30.45;;;;;;;35.68;38.96;100899.22;5035412;28;20084;-85
2022/08/29 09:48:43;;;;;;;33.67;30.98;;;;;;;34.02;46.71;100904.81;5035224;28;20049;-80
2022/08/29 09:51:14;;;;;;;36.72;32.97;;;;;;;34.59;45.33;100894.22;5036759;28;20470;-80
2022/08/29 09:53:42;;;;;;;35.38;31.88;;;;;;;34.52;43.71;100896.78;5032500;28;20115;-79
2022/08/29 09:56:17;;;;;;;32.28;29.23;;;;;;;33.94;43.51;100892.03;5032982;28;20061;-82
2022/08/29 09:58:45;;;;;;;32.75;29.50;;;;;;;33.57;50.84;100889.66;5035526;28;20053;-80
2022/08/29 10:01:18;;;;;;;31.70;28.45;;;;;;;34.70;41.38;100892.44;5034262;28;20543;-83
2022/08/29 10:03:56;;;;;;;32.30;29.75;;;;;;;33.96;45.21;100892.47;5036202;28;20422;-80
2022/08/29 10:06:27;;;;;;;33.50;31.10;;;;;;;33.66;49.61;100886.72;5032406;28;20375;-82
2022/08/29 10:09:00;;;;;;;40.20;36.60;;;;;;;35.17;41.91;100890.53;5032575;28;20045;-80
2022/08/29 10:11:34;;;;;;;31.27;28.88;;;;;;;34.20;48.62;100894.19;5034303;28;20041;-82
2022/08/29 10:14:05;;;;;;;36.53;33.05;;;;;;;35.81;38.19;100880.47;5034644;28;20478;-78
2022/08/29 10:16:45;;;;;;;35.03;32.42;;;;;;;35.70;38.33;100871.22;5034622;28;20050;-85
2022/08/29 10:19:28;;;;;;;32.78;29.95;;;;;;;35.22;37.16;100888.25;5034301;28;20041;-82
2022/08/29 10:22:02;;;;;;;31.55;28.75;;;;;;;34.45;41.62;100893.91;5030557;28;20119;-83
2022/08/29 10:24:55;;;;;;;32.70;30.17;;;;;;;34.35;44.04;100887.03;5034003;28;20060;-82
2022/08/29 10:27:31;;;;;;;32.78;29.63;;;;;;;34.90;46.33;100884.91;5031875;28;20466;-79
2022/08/29 10:30:07;;;;;;;34.20;31.45;;;;;;;35.14;37.48;100881.00;5035103;28;20478;-82
2022/08/29 10:32:56;;;;;;;32.85;29.92;;;;;;;34.06;46.58;100888.38;5034494;28;20080;-83
2022/08/29 10:35:29;;;;;;;32.67;29.83;;;;;;;34.68;42.60;100883.75;5034887;28;20049;-82
2022/08/29 10:37:59;;;;;;;34.33;31.27;;;;;;;34.73;45.04;100885.38;5034465;28;20045;-79
2022/08/29 10:40:35;;;;;;;33.40;29.70;;;;;;;34.14;46.59;100881.88;5034948;28;20049;-80
2022/08/29 10:43:29;;;;;;;35.95;32.53;;;;;;;34.93;41.27;100875.91;5042602;28;20045;-80
2022/08/29 10:46:06;;;;;;;34.83;31.05;;;;;;;35.40;42.16;100871.16;5032222;28;20395;-80
2022/08/29 10:48:37;;;;;;;36.65;33.30;;;;;;;36.57;40.00;100871.13;5030975;28;20461;-79
2022/08/29 10:51:17;;;;;;;34.20;30.75;;;;;;;37.35;34.25;100863.53;5034192;28;20050;-80
2022/08/29 10:53:47;;;;;;;33.60;30.52;;;;;;;36.81;35.19;100867.03;5032922;28;20045;-80
2022/08/29 10:56:20;;;;;;;34.17;30.48;;;;;;;34.47;44.52;100867.56;5032113;28;20061;-83
2022/08/29 10:58:59;;;;;;;32.47;29.45;;;;;;;36.45;37.71;100864.66;5033113;28;20049;-79
2022/08/29 11:01:30;;;;;;;31.73;28.60;;;;;;;35.41;35.81;100861.72;5032705;28;20486;-79
2022/08/29 11:04:15;;;;;;;31.27;28.00;;;;;;;36.05;33.96;100851.59;5038792;28;20053;-79
2022/08/29 11:06:50;;;;;;;29.55;26.65;;;;;;;34.71;43.28;100855.44;5042025;28;20089;-82
2022/08/29 11:09:22;;;;;;;31.50;26.55;;;;;;;36.86;36.50;100845.34;5039856;28;20045;-80
2022/08/29 11:11:59;;;;;;;28.67;26.00;;;;;;;37.11;33.31;100844.75;5036306;28;20040;-80
2022/08/29 11:14:32;;;;;;;32.25;28.95;;;;;;;35.95;36.65;100835.66;5035668;28;20037;-80
2022/08/29 11:17:01;;;;;;;45.45;28.08;;;;;;;35.13;39.11;100848.25;5037913;28;20049;-83
2022/08/29 11:19:34;;;;;;;31.05;27.60;;;;;;;35.08;36.32;100847.41;5040498;28;20061;-82
2022/08/29 11:22:11;;;;;;;33.95;27.40;;;;;;;35.46;36.75;100842.84;5035021;28;20055;-82